Time;durP1;ratioP1;P1;durP2;ratioP2;P2;SDS_P1;SDS_P2;PMS_P1;PMS_P2;Temp;Humidity;BMP_temperature;BMP_pressure;BME280_temperature;BME280_humidity;BME280_pressure;Samples;Min_cycle;Max_cycle;Signal;HPM_P1;HPM_P2
2022/11/11 00:01:58;;;;;;;31.73;18.15;;;;;;;10.47;99.82;102919.47;5047621;28;20113;-70
2022/11/11 00:04:23;;;;;;;35.22;18.77;;;;;;;10.45;99.77;102913.25;5045045;28;20029;-70
2022/11/11 00:06:49;;;;;;;37.80;18.37;;;;;;;10.36;99.83;102914.13;5026043;28;20170;-70
2022/11/11 00:09:14;;;;;;;27.30;16.90;;;;;;;10.34;100.00;102927.09;5041652;28;20029;-70
2022/11/11 00:11:39;;;;;;;29.77;17.45;;;;;;;10.31;100.00;102931.00;5044384;28;20116;-72
2022/11/11 00:14:04;;;;;;;28.40;16.80;;;;;;;10.38;99.90;102947.72;5041106;28;20077;-70
2022/11/11 00:25:04;;;;;;;32.53;17.57;;;;;;;10.38;99.85;102934.91;5043797;28;20040;-71
2022/11/11 00:27:27;;;;;;;33.60;17.88;;;;;;;10.34;100.00;102929.84;5046369;28;20043;-70
2022/11/11 00:29:52;;;;;;;32.73;19.50;;;;;;;10.41;100.00;102931.84;5044976;28;20029;-69
2022/11/11 00:32:25;;;;;;;31.80;18.70;;;;;;;10.31;100.00;102927.41;5026054;28;20465;-70
2022/11/11 00:37:35;;;;;;;30.58;18.17;;;;;;;10.32;99.97;102924.53;5041270;28;20117;-69
2022/11/11 00:40:02;;;;;;;31.23;19.63;;;;;;;10.34;100.00;102932.56;5043088;28;20524;-68
2022/11/11 00:42:27;;;;;;;36.80;18.92;;;;;;;10.39;100.00;102933.00;5025838;28;20066;-69
2022/11/11 00:44:53;;;;;;;38.87;19.17;;;;;;;10.34;100.00;102924.34;5043693;28;20033;-69
2022/11/11 00:53:12;;;;;;;36.17;21.38;;;;;;;10.29;100.00;102933.03;5040522;28;20393;-69
2022/11/11 00:55:38;;;;;;;39.45;20.85;;;;;;;10.34;100.00;102938.06;5043041;28;20064;-69
2022/11/11 00:58:03;;;;;;;34.63;20.80;;;;;;;10.30;100.00;102925.69;5043713;28;20064;-69
2022/11/11 01:00:28;;;;;;;35.58;21.48;;;;;;;10.31;100.00;102941.94;5042134;28;20489;-69
2022/11/11 01:02:53;;;;;;;45.28;22.88;;;;;;;10.31;100.00;102933.72;5043874;28;20082;-69
2022/11/11 01:05:19;;;;;;;36.78;21.42;;;;;;;10.28;100.00;102933.16;5024498;28;20071;-69
2022/11/11 01:07:44;;;;;;;45.70;21.40;;;;;;;10.27;100.00;102932.31;5040941;28;20123;-68
2022/11/11 01:10:10;;;;;;;38.50;22.17;;;;;;;10.25;100.00;102930.72;5040933;28;20055;-68
2022/11/11 01:12:36;;;;;;;39.70;19.87;;;;;;;10.26;100.00;102916.00;5046244;28;20041;-70
2022/11/11 01:15:02;;;;;;;37.28;21.17;;;;;;;10.23;100.00;102908.06;5012142;28;20297;-69
2022/11/11 01:17:28;;;;;;;43.05;22.58;;;;;;;10.24;100.00;102918.03;5045098;28;20040;-68
2022/11/11 01:19:53;;;;;;;46.70;21.42;;;;;;;10.18;100.00;102910.38;5025349;28;20374;-69
2022/11/11 01:22:18;;;;;;;41.07;20.90;;;;;;;10.19;100.00;102914.88;5028539;28;20059;-69
2022/11/11 01:24:44;;;;;;;39.50;23.08;;;;;;;10.20;100.00;102911.13;5043425;28;20085;-68
2022/11/11 01:27:10;;;;;;;45.03;24.05;;;;;;;10.20;100.00;102909.22;5026797;28;20036;-68
2022/11/11 01:29:35;;;;;;;43.60;21.42;;;;;;;10.19;100.00;102909.41;5043127;28;20034;-70
2022/11/11 01:32:00;;;;;;;40.38;22.60;;;;;;;10.21;100.00;102912.84;5042075;28;20295;-68
2022/11/11 01:34:26;;;;;;;41.47;24.08;;;;;;;10.17;100.00;102905.91;5026599;28;20496;-69
2022/11/11 01:36:51;;;;;;;47.25;24.20;;;;;;;10.13;100.00;102896.25;5046233;28;20033;-69
2022/11/11 01:39:17;;;;;;;48.40;23.98;;;;;;;10.09;100.00;102892.09;5045087;28;20499;-69
2022/11/11 01:41:42;;;;;;;46.08;23.38;;;;;;;10.17;100.00;102905.91;5025643;28;20037;-69
2022/11/11 01:44:10;;;;;;;43.88;24.77;;;;;;;10.18;100.00;102902.16;5041396;28;20032;-69
2022/11/11 01:46:44;;;;;;;37.88;23.45;;;;;;;10.14;100.00;102906.22;5041299;28;20423;-71
2022/11/11 01:49:28;;;;;;;45.47;23.38;;;;;;;10.09;100.00;102894.84;5043195;28;20036;-70
2022/11/11 01:52:17;;;;;;;40.45;23.15;;;;;;;10.13;100.00;102899.88;5046360;28;20589;-69
2022/11/11 01:54:57;;;;;;;38.80;23.88;;;;;;;10.13;100.00;102899.00;5034986;28;20053;-71
2022/11/11 01:57:35;;;;;;;46.22;24.52;;;;;;;10.12;100.00;102898.16;5041742;28;20049;-69
2022/11/11 02:00:06;;;;;;;42.55;24.35;;;;;;;10.13;100.00;102896.25;5045022;28;20029;-69
2022/11/11 02:02:47;;;;;;;41.78;22.73;;;;;;;10.14;100.00;102898.00;5042530;28;20075;-71
2022/11/11 02:08:04;;;;;;;41.30;21.88;;;;;;;9.98;100.00;102909.47;5044690;28;20163;-70
2022/11/11 02:10:31;;;;;;;46.08;22.73;;;;;;;10.09;100.00;102905.78;5022729;28;20024;-71
2022/11/11 02:15:40;;;;;;;42.17;24.13;;;;;;;10.05;100.00;102910.69;5040644;28;20162;-70
2022/11/11 02:18:06;;;;;;;44.73;22.70;;;;;;;9.98;100.00;102905.91;5041161;28;20041;-71
2022/11/11 02:20:42;;;;;;;50.95;23.48;;;;;;;9.97;100.00;102915.09;5043930;28;20483;-69
2022/11/11 02:23:35;;;;;;;45.20;23.25;;;;;;;9.95;100.00;102914.38;5026234;28;20107;-69
2022/11/11 02:26:04;;;;;;;43.88;24.40;;;;;;;9.92;100.00;102907.31;5020647;28;20040;-70
2022/11/11 02:28:32;;;;;;;45.03;24.83;;;;;;;9.92;100.00;102915.53;5045334;28;20511;-73
2022/11/11 02:30:57;;;;;;;36.35;23.13;;;;;;;9.99;100.00;102910.34;5042655;28;20162;-70
2022/11/11 02:33:22;;;;;;;45.40;23.97;;;;;;;9.94;100.00;102908.03;5041487;28;20445;-70
2022/11/11 02:35:55;;;;;;;43.88;23.10;;;;;;;9.94;100.00;102905.28;5039097;28;20025;-69
2022/11/11 02:38:21;;;;;;;47.03;24.17;;;;;;;9.84;100.00;102896.22;5040235;28;20346;-69
2022/11/11 02:43:32;;;;;;;40.45;22.95;;;;;;;9.86;100.00;102901.53;5041762;28;20080;-71
2022/11/11 02:45:58;;;;;;;51.17;23.27;;;;;;;9.88;100.00;102883.97;5023739;28;20115;-68
2022/11/11 02:48:24;;;;;;;38.00;22.20;;;;;;;9.86;100.00;102896.94;5034016;28;20045;-72
2022/11/11 02:50:49;;;;;;;36.72;21.23;;;;;;;9.86;100.00;102890.59;5015846;28;20056;-69
2022/11/11 02:53:15;;;;;;;45.08;23.83;;;;;;;9.83;100.00;102893.63;5041269;28;20404;-69
2022/11/11 02:55:40;;;;;;;43.05;22.25;;;;;;;9.82;100.00;102889.16;5041892;28;20021;-69
2022/11/11 02:58:06;;;;;;;39.20;21.93;;;;;;;9.80;100.00;102886.56;5042329;28;20090;-70
2022/11/11 03:00:31;;;;;;;36.40;21.67;;;;;;;9.77;100.00;102888.72;5040843;28;20033;-69
2022/11/11 03:02:56;;;;;;;37.43;20.20;;;;;;;9.75;100.00;102885.25;5024676;28;20161;-70
2022/11/11 03:05:22;;;;;;;40.75;19.92;;;;;;;9.74;100.00;102883.53;5024619;28;20542;-69
2022/11/11 03:07:47;;;;;;;39.33;21.77;;;;;;;9.70;100.00;102884.81;5040251;28;20029;-70
2022/11/11 03:10:12;;;;;;;47.40;20.77;;;;;;;9.74;100.00;102895.34;5023673;28;20095;-69
2022/11/11 03:12:37;;;;;;;34.05;19.05;;;;;;;9.67;100.00;102885.09;5036663;28;20124;-70
2022/11/11 03:15:03;;;;;;;39.15;19.48;;;;;;;9.63;100.00;102886.41;5045235;28;20025;-69
2022/11/11 03:17:38;;;;;;;31.73;18.58;;;;;;;9.61;100.00;102882.94;5039841;28;20110;-69
2022/11/11 03:23:00;;;;;;;36.50;19.52;;;;;;;9.61;100.00;102889.25;5037500;28;20051;-69
2022/11/11 03:25:37;;;;;;;33.40;19.30;;;;;;;9.59;100.00;102895.88;5043334;28;20480;-70
2022/11/11 03:28:13;;;;;;;32.22;19.92;;;;;;;9.63;100.00;102891.88;5042633;28;20065;-69
2022/11/11 03:30:42;;;;;;;33.65;19.95;;;;;;;9.57;100.00;102897.91;5043772;28;20370;-70
2022/11/11 03:33:08;;;;;;;33.55;19.95;;;;;;;9.58;100.00;102895.03;5042229;28;20502;-70
2022/11/11 03:35:34;;;;;;;37.03;20.23;;;;;;;9.62;100.00;102895.63;5045175;28;20071;-69
2022/11/11 03:38:14;;;;;;;34.63;19.05;;;;;;;9.62;100.00;102892.88;5043426;28;20413;-69
2022/11/11 03:40:43;;;;;;;36.70;19.85;;;;;;;9.57;100.00;102900.63;5024577;28;20056;-70
2022/11/11 03:43:11;;;;;;;32.60;19.50;;;;;;;9.56;100.00;102901.66;5046190;28;20481;-71
2022/11/11 03:45:36;;;;;;;34.20;18.90;;;;;;;9.56;100.00;102901.66;5044535;28;20036;-69
2022/11/11 03:48:02;;;;;;;34.38;18.08;;;;;;;9.55;100.00;102899.94;5042565;28;20029;-69
2022/11/11 03:50:27;;;;;;;45.03;20.97;;;;;;;9.60;100.00;102911.31;5042341;28;20372;-69
2022/11/11 03:52:52;;;;;;;39.97;20.20;;;;;;;9.61;100.00;102902.09;5042032;28;20078;-69
2022/11/11 03:55:17;;;;;;;33.03;19.47;;;;;;;9.49;100.00;102911.41;5046200;28;20456;-69
2022/11/11 03:57:45;;;;;;;36.63;21.15;;;;;;;9.49;100.00;102916.88;5020590;28;20044;-69
2022/11/11 04:00:15;;;;;;;38.67;19.83;;;;;;;9.45;100.00;102919.03;5046878;28;20020;-69
2022/11/11 04:11:01;;;;;;;33.90;18.48;;;;;;;9.40;100.00;102928.69;5040709;28;20087;-70
2022/11/11 04:16:11;;;;;;;30.88;18.88;;;;;;;9.32;100.00;102923.91;5044702;28;20064;-68
2022/11/11 04:26:52;;;;;;;32.90;18.33;;;;;;;9.29;100.00;102931.50;5045819;28;20037;-69
2022/11/11 04:29:29;;;;;;;34.42;17.65;;;;;;;9.30;100.00;102933.25;5040252;28;20044;-68
2022/11/11 04:34:47;;;;;;;34.85;17.80;;;;;;;9.31;100.00;102924.03;5038588;28;20040;-70
2022/11/11 04:37:14;;;;;;;34.85;19.13;;;;;;;9.28;100.00;102924.31;5027130;28;20120;-71
2022/11/11 04:42:24;;;;;;;31.77;19.58;;;;;;;9.26;100.00;102920.84;5036157;28;20096;-69
2022/11/11 04:47:33;;;;;;;32.72;18.77;;;;;;;9.15;100.00;102918.22;5044169;28;20124;-69
2022/11/11 04:49:58;;;;;;;33.60;18.40;;;;;;;9.17;100.00;102916.19;5039634;28;20199;-70
2022/11/11 04:52:27;;;;;;;35.67;19.15;;;;;;;9.20;100.00;102925.00;5047205;28;20029;-69
2022/11/11 04:57:43;;;;;;;35.40;19.40;;;;;;;9.17;100.00;102910.72;5040983;28;20047;-70
2022/11/11 05:00:11;;;;;;;34.25;19.20;;;;;;;9.19;100.00;102912.31;5025841;28;20035;-69
2022/11/11 05:05:22;;;;;;;33.03;18.08;;;;;;;9.17;100.00;102921.66;5039364;28;20388;-69
2022/11/11 05:10:31;;;;;;;27.73;19.17;;;;;;;9.12;100.00;102919.34;5042454;28;20049;-71
2022/11/11 05:21:19;;;;;;;28.15;18.25;;;;;;;9.04;100.00;102919.19;5044998;28;20021;-68
2022/11/11 05:21:25;;;;;;;37.30;21.90;;;;;;;9.04;100.00;102923.78;5044357;28;20082;-70
2022/11/11 05:26:34;;;;;;;32.80;21.45;;;;;;;9.09;100.00;102907.81;5043318;28;20048;-69
2022/11/11 05:29:00;;;;;;;34.28;22.45;;;;;;;9.06;100.00;102903.50;5021217;28;20033;-70
2022/11/11 05:31:27;;;;;;;38.60;23.40;;;;;;;9.03;100.00;102903.75;5028035;28;20041;-70
2022/11/11 05:33:52;;;;;;;40.75;22.08;;;;;;;9.03;100.00;102898.28;5037280;28;20029;-68
2022/11/11 05:36:17;;;;;;;39.17;23.30;;;;;;;9.05;100.00;102896.31;5040884;28;20029;-69
2022/11/11 05:38:43;;;;;;;38.65;23.33;;;;;;;9.00;100.00;102892.22;5023495;28;20119;-70
2022/11/11 05:41:08;;;;;;;42.45;23.33;;;;;;;8.97;100.00;102887.06;5040076;28;20032;-69
2022/11/11 05:43:34;;;;;;;39.63;24.75;;;;;;;9.00;100.00;102897.69;5021811;28;20033;-69
2022/11/11 05:45:59;;;;;;;37.83;23.15;;;;;;;8.99;100.00;102902.31;5041562;28;20390;-68
2022/11/11 05:48:24;;;;;;;35.33;22.88;;;;;;;8.98;100.00;102908.75;5043724;28;20068;-69
2022/11/11 05:50:49;;;;;;;36.67;22.80;;;;;;;8.98;100.00;102900.56;5019868;28;21661;-70
2022/11/11 05:53:15;;;;;;;42.33;24.97;;;;;;;8.98;100.00;102905.19;5037052;28;20044;-73
2022/11/11 05:55:40;;;;;;;34.70;23.83;;;;;;;8.89;100.00;102912.34;5027918;28;20477;-71
2022/11/11 05:58:05;;;;;;;39.63;24.27;;;;;;;8.90;100.00;102911.31;5041450;28;20029;-69
2022/11/11 06:00:31;;;;;;;42.70;25.50;;;;;;;8.93;100.00;102910.19;5028193;28;20033;-69
2022/11/11 06:03:14;;;;;;;40.30;24.75;;;;;;;8.93;100.00;102910.19;5043693;28;20144;-70
2022/11/11 06:05:39;;;;;;;49.33;25.20;;;;;;;8.92;100.00;102914.78;5021683;28;20488;-69
2022/11/11 06:08:04;;;;;;;36.60;23.35;;;;;;;8.89;100.00;102920.53;5037914;28;20029;-71
2022/11/11 06:10:30;;;;;;;37.55;23.13;;;;;;;8.80;100.00;102923.22;5040742;28;20029;-71
2022/11/11 06:13:08;;;;;;;34.50;22.08;;;;;;;8.75;100.00;102926.34;5040224;28;20032;-69
2022/11/11 06:15:35;;;;;;;33.22;22.50;;;;;;;8.86;100.00;102939.91;5042388;28;20025;-72
2022/11/11 06:18:02;;;;;;;;;;;;;;;8.81;100.00;102925.78;5037736;28;20033;-69
2022/11/11 06:20:27;;;;;;;38.20;21.65;;;;;;;8.76;100.00;102935.41;5039672;28;20007;-69
2022/11/11 06:22:56;;;;;;;35.35;22.83;;;;;;;8.79;100.00;102932.41;5006755;28;20029;-71
2022/11/11 06:28:15;;;;;;;37.25;20.70;;;;;;;8.67;100.00;102938.94;5038563;28;20028;-69
2022/11/11 06:30:41;;;;;;;36.92;21.38;;;;;;;8.65;100.00;102938.22;5036766;28;20590;-70
2022/11/11 06:33:07;;;;;;;42.05;23.63;;;;;;;8.69;100.00;102937.81;5042539;28;20112;-70
2022/11/11 06:35:34;;;;;;;37.20;23.98;;;;;;;8.65;100.00;102933.59;5038771;28;20029;-71
2022/11/11 06:37:59;;;;;;;;;;;;;;;8.69;100.00;102942.41;5039033;28;20032;-69
2022/11/11 06:40:24;;;;;;;46.33;23.85;;;;;;;8.68;100.00;102940.66;5043638;28;19935;-69
2022/11/11 06:42:50;;;;;;;42.20;25.33;;;;;;;8.70;100.00;102955.09;5041610;28;20029;-69
2022/11/11 06:45:15;;;;;;;41.33;24.43;;;;;;;8.64;100.00;102953.72;5039425;28;20599;-70
2022/11/11 06:47:41;;;;;;;43.03;23.90;;;;;;;8.62;100.00;102952.13;5034026;28;20033;-72
2022/11/11 06:50:07;;;;;;;43.83;26.05;;;;;;;8.57;100.00;102952.53;5039229;28;20057;-71
2022/11/11 06:52:32;;;;;;;47.15;24.25;;;;;;;8.57;100.00;102957.13;5038276;28;20602;-71
2022/11/11 06:54:57;;;;;;;42.33;24.00;;;;;;;8.58;100.00;102957.00;5042514;28;20032;-71
2022/11/11 06:57:23;;;;;;;40.70;24.10;;;;;;;8.64;100.00;102961.09;5042993;28;20118;-69
2022/11/11 06:59:48;;;;;;;45.90;23.60;;;;;;;8.61;100.00;102964.06;5037452;28;20128;-69
2022/11/11 07:02:14;;;;;;;39.15;23.92;;;;;;;8.59;100.00;102963.34;5042149;28;20432;-69
2022/11/11 07:04:39;;;;;;;38.42;23.88;;;;;;;8.59;100.00;102969.66;5040228;28;20037;-72
2022/11/11 07:07:04;;;;;;;42.60;24.65;;;;;;;8.62;100.00;102971.25;5031247;28;20345;-70
2022/11/11 07:09:30;;;;;;;37.03;22.85;;;;;;;8.57;100.00;102968.94;5037004;28;20056;-70
2022/11/11 07:11:55;;;;;;;41.00;23.67;;;;;;;8.64;100.00;102972.00;5024646;28;20524;-70
2022/11/11 07:14:20;;;;;;;38.67;24.00;;;;;;;8.63;100.00;102973.84;5043996;28;20425;-70
2022/11/11 07:16:45;;;;;;;44.53;25.52;;;;;;;8.66;100.00;102981.78;5037548;28;20393;-69
2022/11/11 07:19:11;;;;;;;45.30;26.38;;;;;;;8.71;100.00;102975.94;5022567;28;20039;-69
2022/11/11 07:21:36;;;;;;;43.97;25.55;;;;;;;8.78;100.00;102977.13;5040020;28;20077;-70
2022/11/11 07:24:02;;;;;;;45.10;28.10;;;;;;;8.81;100.00;102979.59;5039183;28;20082;-69
2022/11/11 07:26:27;;;;;;;47.40;26.65;;;;;;;8.83;100.00;102988.53;5039668;28;20033;-70
2022/11/11 07:28:52;;;;;;;41.58;26.45;;;;;;;8.87;100.00;102996.31;5039381;28;20032;-68
2022/11/11 07:31:17;;;;;;;39.88;26.60;;;;;;;8.89;100.00;102993.44;5037331;28;20029;-71
2022/11/11 07:33:43;;;;;;;51.55;27.63;;;;;;;8.89;100.00;102990.72;5041923;28;20151;-70
2022/11/11 07:36:08;;;;;;;47.77;28.27;;;;;;;8.92;100.00;102995.94;5025561;28;20539;-69
2022/11/11 07:38:33;;;;;;;53.17;27.42;;;;;;;8.95;100.00;102993.78;5038276;28;20037;-68
2022/11/11 07:40:59;;;;;;;52.08;28.70;;;;;;;8.96;100.00;103002.88;5036135;28;20038;-69
2022/11/11 07:43:24;;;;;;;55.07;29.50;;;;;;;9.03;100.00;103012.25;5041911;28;20036;-68
2022/11/11 07:45:50;;;;;;;52.85;29.00;;;;;;;9.02;100.00;103005.91;5030101;28;20028;-67
2022/11/11 07:48:15;;;;;;;53.10;30.30;;;;;;;9.05;100.00;103010.22;5042623;28;20048;-68
2022/11/11 07:50:40;;;;;;;54.78;31.15;;;;;;;9.10;100.00;103007.97;5037430;28;20042;-68
2022/11/11 07:53:06;;;;;;;55.70;31.55;;;;;;;9.15;100.00;103016.63;5023620;28;20186;-69
2022/11/11 07:55:31;;;;;;;51.00;30.13;;;;;;;9.13;100.00;103019.50;5026189;28;20033;-68
2022/11/11 07:57:57;;;;;;;56.70;32.60;;;;;;;9.13;100.00;103015.91;5038533;28;20043;-69
2022/11/11 08:00:23;;;;;;;66.70;34.63;;;;;;;9.17;100.00;103031.03;5023653;28;20345;-68
2022/11/11 08:02:48;;;;;;;57.33;33.88;;;;;;;9.19;100.00;103029.03;5027837;28;20294;-69
2022/11/11 08:05:14;;;;;;;56.20;34.67;;;;;;;9.27;100.00;103037.41;5044762;28;20037;-69
2022/11/11 08:07:41;;;;;;;58.75;34.22;;;;;;;9.31;100.00;103027.94;5043823;28;20408;-68
2022/11/11 08:10:07;;;;;;;57.38;35.17;;;;;;;9.32;100.00;103030.56;5041798;28;20045;-69
2022/11/11 08:15:19;;;;;;;58.75;33.97;;;;;;;9.34;100.00;103038.63;5042897;28;20060;-70
2022/11/11 08:17:44;;;;;;;66.18;35.00;;;;;;;9.37;100.00;103038.34;5043390;28;20032;-69
2022/11/11 08:20:11;;;;;;;60.13;34.17;;;;;;;9.40;100.00;103044.41;5040773;28;20026;-68
2022/11/11 08:22:41;;;;;;;57.17;34.47;;;;;;;9.42;100.00;103047.00;5027921;28;20033;-70
2022/11/11 08:25:09;;;;;;;66.13;36.38;;;;;;;9.42;100.00;103044.25;5037912;28;20198;-69
2022/11/11 08:27:34;;;;;;;59.83;34.97;;;;;;;9.53;100.00;103061.47;5039591;28;20021;-71
2022/11/11 08:30:00;;;;;;;70.80;34.83;;;;;;;9.48;100.00;103047.34;5037299;28;20528;-69
2022/11/11 08:32:26;;;;;;;62.78;33.95;;;;;;;9.51;100.00;103048.94;5018559;28;20037;-70
2022/11/11 08:34:51;;;;;;;65.78;34.30;;;;;;;9.56;100.00;103052.13;5040635;28;20385;-68
2022/11/11 08:37:17;;;;;;;55.80;32.00;;;;;;;9.58;100.00;103050.09;5033950;28;20032;-68
2022/11/11 08:39:42;;;;;;;53.10;32.53;;;;;;;9.60;100.00;103046.22;5041049;28;20024;-68
2022/11/11 08:42:07;;;;;;;63.92;34.15;;;;;;;9.66;100.00;103050.31;5037771;28;20104;-71
2022/11/11 08:44:33;;;;;;;57.92;33.50;;;;;;;9.70;100.00;103051.72;5046589;28;20092;-71
2022/11/11 08:46:58;;;;;;;59.17;35.80;;;;;;;9.64;100.00;103055.91;5025613;28;20448;-69
2022/11/11 08:49:23;;;;;;;64.28;34.13;;;;;;;9.65;100.00;103065.84;5041439;28;20314;-68
2022/11/11 08:51:49;;;;;;;56.95;34.17;;;;;;;9.70;100.00;103054.47;5025002;28;20075;-69
2022/11/11 08:54:14;;;;;;;59.17;33.50;;;;;;;9.72;100.00;103063.44;5039860;28;20047;-70
2022/11/11 08:56:40;;;;;;;60.28;34.20;;;;;;;9.74;100.00;103072.34;5026880;28;20039;-69
2022/11/11 08:59:05;;;;;;;47.63;31.73;;;;;;;9.84;100.00;103076.88;5023639;28;20031;-69
2022/11/11 09:01:30;;;;;;;53.92;33.17;;;;;;;9.78;100.00;103074.66;5026168;28;20025;-68
2022/11/11 09:03:56;;;;;;;53.35;32.92;;;;;;;9.79;100.00;103070.94;5042091;28;20065;-69
2022/11/11 09:06:21;;;;;;;49.40;32.93;;;;;;;9.81;100.00;103073.53;5027024;28;20030;-69
2022/11/11 09:08:47;;;;;;;50.03;30.35;;;;;;;9.82;100.00;103080.75;5022870;28;20483;-68
2022/11/11 09:11:12;;;;;;;48.20;30.23;;;;;;;9.79;100.00;103078.28;5039122;28;20028;-69
2022/11/11 09:13:39;;;;;;;47.50;29.65;;;;;;;9.85;100.00;103085.94;5043339;28;20168;-69
2022/11/11 09:16:05;;;;;;;53.28;28.10;;;;;;;9.84;100.00;103078.75;5043654;28;20033;-68
2022/11/11 09:18:34;;;;;;;51.00;29.63;;;;;;;9.86;100.00;103082.19;5041264;28;20037;-68
2022/11/11 09:20:59;;;;;;;45.00;30.30;;;;;;;9.87;100.00;103093.00;5023512;28;20048;-69
2022/11/11 09:23:25;;;;;;;39.97;28.02;;;;;;;9.92;100.00;103095.34;5026785;28;20070;-71
2022/11/11 09:25:51;;;;;;;46.42;28.90;;;;;;;9.98;100.00;103100.28;5018675;28;20038;-69
2022/11/11 09:28:16;;;;;;;54.67;31.55;;;;;;;10.03;100.00;103087.03;5039635;28;20048;-69
2022/11/11 09:30:42;;;;;;;49.73;34.13;;;;;;;10.04;100.00;103088.81;5041282;28;20036;-69
2022/11/11 09:33:08;;;;;;;59.03;34.55;;;;;;;10.10;100.00;103090.97;5022878;28;20033;-68
2022/11/11 09:35:35;;;;;;;52.83;33.28;;;;;;;10.02;100.00;103093.50;5042043;28;20448;-68
2022/11/11 09:38:01;;;;;;;44.20;29.10;;;;;;;10.05;100.00;103093.25;5045500;28;20028;-68
2022/11/11 09:40:38;;;;;;;44.97;27.27;;;;;;;10.12;99.96;103098.03;5039831;28;20174;-68
2022/11/11 09:43:25;;;;;;;48.15;30.90;;;;;;;10.11;100.00;103107.28;5046219;28;20480;-68
2022/11/11 09:46:14;;;;;;;43.33;28.50;;;;;;;10.15;99.00;103113.34;5040540;28;20033;-69
2022/11/11 09:48:48;;;;;;;51.05;29.50;;;;;;;10.13;99.64;103110.72;5045506;28;21809;-69
2022/11/11 09:51:22;;;;;;;51.83;30.42;;;;;;;10.12;99.85;103113.59;5028022;28;20385;-71
2022/11/11 09:53:53;;;;;;;54.60;31.63;;;;;;;10.15;99.30;103113.34;5042467;28;20029;-69
2022/11/11 09:56:22;;;;;;;41.75;29.90;;;;;;;10.16;99.25;103126.00;5043826;28;20455;-68
2022/11/11 09:59:14;;;;;;;44.35;25.75;;;;;;;10.10;99.36;103126.56;5043785;28;20361;-70
2022/11/11 10:01:45;;;;;;;33.08;21.85;;;;;;;10.13;98.32;103129.91;5035975;28;20393;-69
2022/11/11 10:04:38;;;;;;;32.60;21.77;;;;;;;10.19;98.42;103120.28;5042783;28;20814;-70
2022/11/11 10:07:24;;;;;;;32.85;23.38;;;;;;;10.20;97.87;103122.84;5022817;28;20024;-68
2022/11/11 10:10:03;;;;;;;38.05;22.95;;;;;;;10.26;97.81;103124.19;5025979;28;20428;-69
2022/11/11 10:12:38;;;;;;;38.00;22.80;;;;;;;10.35;97.97;103120.59;5040904;28;20105;-69
2022/11/11 10:15:04;;;;;;;36.63;24.98;;;;;;;10.41;97.73;103122.78;5023887;28;20029;-69
2022/11/11 10:17:43;;;;;;;42.70;29.00;;;;;;;10.48;97.50;103115.72;5035663;28;20037;-69
2022/11/11 10:20:29;;;;;;;44.58;26.65;;;;;;;10.50;97.08;103125.53;5035890;28;20040;-68
2022/11/11 10:23:15;;;;;;;41.38;26.70;;;;;;;10.57;96.61;103134.91;5040804;28;20036;-70
2022/11/11 10:25:54;;;;;;;48.28;28.42;;;;;;;10.60;96.44;103131.91;5041630;28;20037;-69
2022/11/11 10:28:21;;;;;;;46.05;30.35;;;;;;;10.55;96.45;103130.59;5039288;28;20505;-68
2022/11/11 10:30:48;;;;;;;48.13;29.48;;;;;;;10.63;96.44;103142.56;5021619;28;20029;-70
2022/11/11 10:33:29;;;;;;;45.67;29.95;;;;;;;10.62;96.27;103134.50;5042132;28;20472;-70
2022/11/11 10:35:59;;;;;;;51.42;31.75;;;;;;;10.50;96.90;103136.50;5019434;28;20029;-69
2022/11/11 10:38:33;;;;;;;55.25;31.98;;;;;;;10.54;96.53;103137.97;5043100;28;20128;-68
2022/11/11 10:41:44;;;;;;;50.70;31.05;;;;;;;10.48;96.38;103138.53;5023367;28;20028;-69
2022/11/11 10:44:21;;;;;;;53.42;30.38;;;;;;;10.46;96.75;103139.66;5040735;28;20434;-69
2022/11/11 10:46:56;;;;;;;49.47;30.70;;;;;;;10.42;96.58;103138.22;5043293;28;20060;-69
2022/11/11 10:49:25;;;;;;;51.35;30.52;;;;;;;10.38;96.21;103136.75;5038454;28;20542;-70
2022/11/11 10:52:06;;;;;;;50.38;30.25;;;;;;;10.37;96.83;103146.88;5043568;28;20040;-69
2022/11/11 10:54:50;;;;;;;45.85;29.90;;;;;;;10.49;96.56;103142.09;5041463;28;20400;-69
2022/11/11 10:57:27;;;;;;;47.58;28.55;;;;;;;10.61;95.73;103151.94;5041924;28;20461;-69
2022/11/11 10:59:58;;;;;;;52.55;30.15;;;;;;;10.51;96.15;103153.81;5041406;28;20034;-69
2022/11/11 11:02:33;;;;;;;44.67;29.60;;;;;;;10.59;95.96;103143.00;5040792;28;20476;-69
2022/11/11 11:05:25;;;;;;;47.17;28.48;;;;;;;10.59;95.94;103143.88;5040894;28;20021;-69
2022/11/11 11:07:54;;;;;;;45.35;29.98;;;;;;;10.64;96.55;103137.97;5030476;28;20464;-70
2022/11/11 11:10:23;;;;;;;47.13;29.15;;;;;;;10.72;95.22;103135.41;5039024;28;20446;-71
2022/11/11 11:12:58;;;;;;;50.17;28.73;;;;;;;10.89;95.26;103132.78;5029258;28;20083;-69
2022/11/11 11:15:27;;;;;;;53.38;29.15;;;;;;;11.00;93.95;103145.50;5022587;28;20132;-68
2022/11/11 11:18:04;;;;;;;45.08;28.05;;;;;;;10.84;94.48;103142.47;5042969;28;20032;-69
2022/11/11 11:20:29;;;;;;;46.70;28.23;;;;;;;10.97;94.44;103140.28;5038060;28;20112;-70
2022/11/11 11:22:58;;;;;;;42.97;28.07;;;;;;;11.06;93.95;103136.69;5040993;28;20611;-69
2022/11/11 11:25:25;;;;;;;44.08;28.83;;;;;;;11.14;93.85;103139.56;5038082;28;20025;-69
2022/11/11 11:28:03;;;;;;;44.75;29.17;;;;;;;11.22;93.21;103134.25;5039463;28;20029;-70
2022/11/11 11:30:30;;;;;;;;;;;;;;;11.23;92.60;103138.72;5041904;28;20448;-70
2022/11/11 11:33:04;;;;;;;48.30;26.42;;;;;;;11.42;91.97;103127.72;5039345;28;19924;-71
2022/11/11 11:35:38;;;;;;;38.20;26.13;;;;;;;11.42;91.76;103125.81;5044330;28;20060;-69
2022/11/11 11:38:06;;;;;;;45.33;26.88;;;;;;;11.45;91.32;103125.53;5042929;28;20140;-69
2022/11/11 11:40:48;;;;;;;45.05;27.17;;;;;;;11.66;90.97;103129.00;5039932;28;20111;-69
2022/11/11 11:43:33;;;;;;;40.95;25.60;;;;;;;11.77;90.67;103114.22;5031814;28;20033;-69
2022/11/11 11:46:01;;;;;;;43.88;26.02;;;;;;;11.79;89.77;103112.22;5026634;28;20397;-69
2022/11/11 11:48:39;;;;;;;37.80;24.90;;;;;;;12.00;89.16;103121.09;5041358;28;20556;-69
2022/11/11 11:51:19;;;;;;;33.97;24.48;;;;;;;12.04;88.40;103119.75;5041048;28;20380;-69
2022/11/11 11:54:16;;;;;;;34.40;25.23;;;;;;;12.11;88.34;103107.16;5042308;28;20060;-70
2022/11/11 11:56:46;;;;;;;35.25;23.95;;;;;;;12.12;87.95;103114.38;5039656;28;20036;-69
2022/11/11 11:59:25;;;;;;;34.95;22.48;;;;;;;12.26;87.83;103109.22;5043466;28;20029;-69
2022/11/11 12:02:47;;;;;;;35.35;21.92;;;;;;;12.21;87.22;103110.69;5024678;28;20036;-70
2022/11/11 12:05:30;;;;;;;33.15;21.35;;;;;;;12.21;87.86;103096.94;4980659;28;20049;-68
2022/11/11 12:08:17;;;;;;;40.85;22.08;;;;;;;12.44;87.03;103103.78;5047131;28;20024;-69
2022/11/11 12:11:20;;;;;;;38.03;20.92;;;;;;;12.55;86.79;103106.31;5043289;28;20029;-71
2022/11/11 12:14:12;;;;;;;33.42;18.95;;;;;;;12.72;85.43;103097.22;5040448;28;20029;-68
2022/11/11 12:17:08;;;;;;;33.65;20.20;;;;;;;12.84;86.00;103093.19;5021099;28;20021;-70
2022/11/11 12:20:00;;;;;;;27.13;19.95;;;;;;;12.90;85.00;103087.06;5038127;28;20036;-70
2022/11/11 12:22:45;;;;;;;28.83;17.48;;;;;;;12.95;84.62;103092.94;5041744;28;20492;-69
2022/11/11 12:25:22;;;;;;;21.63;15.48;;;;;;;12.91;84.48;103089.66;5024064;28;20025;-69
2022/11/11 12:28:14;;;;;;;27.58;15.18;;;;;;;12.93;84.10;103093.13;5041680;28;20024;-69
2022/11/11 12:30:50;;;;;;;28.70;14.57;;;;;;;13.08;84.40;103090.72;5045446;28;20029;-70
2022/11/11 12:33:26;;;;;;;25.92;14.57;;;;;;;13.01;83.38;103097.84;5044462;28;20527;-69
2022/11/11 12:36:02;;;;;;;25.50;14.60;;;;;;;13.07;84.34;103097.25;5042230;28;20029;-70
2022/11/11 12:38:37;;;;;;;19.67;13.80;;;;;;;13.16;84.31;103082.50;5040700;28;20048;-70
2022/11/11 12:41:24;;;;;;;20.88;14.25;;;;;;;13.33;83.55;103082.50;5030218;28;20037;-69